Terminal Aerodrome Forecast
Issued by NWS

Current Version | Previous Version | Text Only | Print | Product List | Glossary On
Versions: 1 2 3 4 5 6 7 8 9 10 11 12 13 14 15 16 17 18 19 20
981
FTUS42 KFFC 231125
TAFFTY
TAF
KFTY 231125Z 2312/2412 00000KT P6SM SCT250
     FM231500 25004KT P6SM SCT035
     FM231700 28004KT P6SM VCSH BKN050 PROB30 2321/2401 4SM TSRA
      BKN035CB
     FM240100 00000KT P6SM SCT060 BKN250=

USA.gov is the U.S. government's official web portal to all federal, state and local government web resources and services.